Time;durP1;ratioP1;P1;durP2;ratioP2;P2;SDS_P1;SDS_P2;PMS_P1;PMS_P2;Temp;Humidity;BMP_temperature;BMP_pressure;BME280_temperature;BME280_humidity;BME280_pressure;Samples;Min_cycle;Max_cycle;Signal;HPM_P1;HPM_P2
2023/03/03 00:01:03;;;;;;;28.38;19.27;;;3.50;99.90;;;;;;4992416;28;20042;-72
2023/03/03 00:03:29;;;;;;;29.13;18.67;;;3.60;99.90;;;;;;4992349;28;20050;-71
2023/03/03 00:05:54;;;;;;;28.23;18.60;;;3.60;99.90;;;;;;4976309;28;20042;-71
2023/03/03 00:08:21;;;;;;;28.88;17.83;;;3.50;99.90;;;;;;4976014;28;20499;-72
2023/03/03 00:10:47;;;;;;;26.00;18.30;;;3.60;99.90;;;;;;4992284;28;20038;-72
2023/03/03 00:13:19;;;;;;;28.88;18.85;;;3.50;99.90;;;;;;4992319;28;20093;-71
2023/03/03 00:15:45;;;;;;;28.00;18.75;;;3.50;99.90;;;;;;4992481;28;20049;-71
2023/03/03 00:18:30;;;;;;;28.35;17.67;;;3.60;99.90;;;;;;4992075;28;20438;-71
2023/03/03 00:20:57;;;;;;;30.30;18.27;;;3.60;99.90;;;;;;4976066;28;20041;-72
2023/03/03 00:23:38;;;;;;;27.60;16.98;;;3.50;99.90;;;;;;4976294;28;20129;-72
2023/03/03 00:26:20;;;;;;;24.67;18.15;;;3.60;99.90;;;;;;4992062;28;20049;-71
2023/03/03 00:28:48;;;;;;;31.77;18.30;;;3.60;99.90;;;;;;4992281;28;20038;-72
2023/03/03 00:31:26;;;;;;;28.50;18.20;;;3.60;99.90;;;;;;4975919;28;20422;-72
2023/03/03 00:33:54;;;;;;;29.55;18.75;;;3.60;99.90;;;;;;4976166;28;20054;-71
2023/03/03 00:36:37;;;;;;;28.83;18.42;;;3.60;99.90;;;;;;4975999;28;20060;-71
2023/03/03 00:39:34;;;;;;;35.20;18.50;;;3.70;99.90;;;;;;4992073;28;20096;-72
2023/03/03 00:42:03;;;;;;;31.67;18.33;;;3.70;99.90;;;;;;4992987;28;20109;-72
2023/03/03 00:44:41;;;;;;;39.35;20.23;;;3.70;99.90;;;;;;4995546;28;20422;-72
2023/03/03 00:47:26;;;;;;;33.55;19.15;;;3.70;99.90;;;;;;4995613;28;20495;-71
2023/03/03 00:50:25;;;;;;;27.27;17.67;;;3.70;99.90;;;;;;4995543;28;20125;-72
2023/03/03 00:53:10;;;;;;;31.27;18.33;;;3.70;99.90;;;;;;4995441;28;20073;-72
2023/03/03 00:55:35;;;;;;;33.78;18.90;;;3.70;99.90;;;;;;4995853;28;20034;-71
2023/03/03 00:58:03;;;;;;;33.88;17.48;;;3.60;99.90;;;;;;4979442;28;20081;-71
2023/03/03 01:00:29;;;;;;;32.17;17.00;;;3.70;99.90;;;;;;4995205;28;20046;-73
2023/03/03 01:02:54;;;;;;;54.03;18.90;;;3.60;99.90;;;;;;4995256;28;20108;-71
2023/03/03 01:05:20;;;;;;;45.63;16.63;;;3.60;99.90;;;;;;4978987;28;20042;-72
2023/03/03 01:07:46;;;;;;;29.30;15.60;;;3.60;99.90;;;;;;4978783;28;20042;-71
2023/03/03 01:10:12;;;;;;;36.28;14.32;;;3.60;99.90;;;;;;4995150;28;20050;-72
2023/03/03 01:12:38;;;;;;;46.85;15.77;;;3.60;99.90;;;;;;4979038;28;20074;-72
2023/03/03 01:15:07;;;;;;;38.15;14.88;;;3.50;99.90;;;;;;4979025;28;20558;-71
2023/03/03 01:17:33;;;;;;;32.22;14.88;;;3.50;99.90;;;;;;4995467;28;20074;-71
2023/03/03 01:19:59;;;;;;;61.40;15.70;;;3.60;99.90;;;;;;4994949;28;20077;-72
2023/03/03 01:22:25;;;;;;;30.83;15.65;;;3.60;99.90;;;;;;4978698;28;20406;-72
2023/03/03 01:24:50;;;;;;;41.35;15.77;;;3.60;99.90;;;;;;4978690;28;20061;-71
2023/03/03 01:27:16;;;;;;;64.57;18.05;;;3.70;99.90;;;;;;4978625;28;20070;-72
2023/03/03 01:29:42;;;;;;;71.32;17.13;;;3.60;99.90;;;;;;4978417;28;20045;-72
2023/03/03 01:32:07;;;;;;;63.72;19.08;;;3.70;99.90;;;;;;4978571;28;20039;-72
2023/03/03 01:34:33;;;;;;;105.43;17.70;;;3.70;99.90;;;;;;4995016;28;20034;-72
2023/03/03 01:36:59;;;;;;;46.05;16.27;;;3.60;99.90;;;;;;4994558;28;20049;-71
2023/03/03 01:39:25;;;;;;;45.22;17.42;;;3.60;99.90;;;;;;4994643;28;20415;-72
2023/03/03 01:41:51;;;;;;;50.53;17.38;;;3.70;99.90;;;;;;4994595;28;20045;-72
2023/03/03 01:44:17;;;;;;;63.45;17.25;;;3.60;99.90;;;;;;4978563;28;20042;-72
2023/03/03 01:46:43;;;;;;;72.47;18.63;;;3.70;99.90;;;;;;4978125;28;20046;-71
2023/03/03 01:49:16;;;;;;;58.55;16.33;;;3.70;99.90;;;;;;4994389;28;20129;-72
2023/03/03 01:51:51;;;;;;;91.82;17.65;;;3.70;99.90;;;;;;4978217;28;20133;-71
2023/03/03 01:54:32;;;;;;;83.25;17.85;;;3.70;99.90;;;;;;4977100;28;20406;-71
2023/03/03 01:57:02;;;;;;;71.57;17.90;;;3.70;99.90;;;;;;4994550;28;20066;-71
2023/03/03 01:59:32;;;;;;;64.90;16.45;;;3.60;99.90;;;;;;4994640;28;20061;-72
2023/03/03 02:01:58;;;;;;;56.65;15.95;;;3.70;99.90;;;;;;4994170;28;20053;-71
2023/03/03 02:04:25;;;;;;;91.03;16.33;;;3.70;99.90;;;;;;4977975;28;20046;-72
2023/03/03 02:06:57;;;;;;;53.33;16.45;;;3.70;99.90;;;;;;4977869;28;20045;-71
2023/03/03 02:09:41;;;;;;;49.60;17.10;;;3.70;99.90;;;;;;4994029;28;20042;-72
2023/03/03 02:12:11;;;;;;;53.33;16.23;;;3.70;99.90;;;;;;4977829;28;20510;-72
2023/03/03 02:14:36;;;;;;;50.58;15.65;;;3.80;99.90;;;;;;4993984;28;20038;-72
2023/03/03 02:17:02;;;;;;;87.85;18.05;;;3.80;99.90;;;;;;4993921;28;20053;-71
2023/03/03 02:19:37;;;;;;;69.18;17.85;;;3.80;99.90;;;;;;4977683;28;20042;-72
2023/03/03 02:22:02;;;;;;;86.47;17.38;;;3.80;99.90;;;;;;4977550;28;20042;-72
2023/03/03 02:24:43;;;;;;;60.22;17.20;;;3.80;99.90;;;;;;4993741;28;20096;-71
2023/03/03 02:27:09;;;;;;;76.00;17.75;;;3.80;99.90;;;;;;4993924;28;20068;-71
2023/03/03 02:29:35;;;;;;;45.88;16.02;;;3.80;99.90;;;;;;4993622;28;20515;-72
2023/03/03 02:32:00;;;;;;;58.40;18.33;;;3.80;99.90;;;;;;4993505;28;20045;-71
2023/03/03 02:34:26;;;;;;;121.10;19.85;;;3.80;99.90;;;;;;4977411;28;20070;-72
2023/03/03 02:36:52;;;;;;;85.07;17.27;;;3.80;99.90;;;;;;4977242;28;20092;-71
2023/03/03 02:39:22;;;;;;;94.90;19.13;;;3.80;99.90;;;;;;4993449;28;20077;-72
2023/03/03 02:41:58;;;;;;;68.75;18.90;;;3.80;99.90;;;;;;4977436;28;20046;-71
2023/03/03 02:44:26;;;;;;;58.90;18.23;;;3.80;99.90;;;;;;4993638;28;20474;-72
2023/03/03 02:46:53;;;;;;;57.75;18.17;;;3.80;99.90;;;;;;4993157;28;20499;-71
2023/03/03 02:49:23;;;;;;;68.30;18.33;;;3.80;99.90;;;;;;4993341;28;20042;-72
2023/03/03 02:51:49;;;;;;;77.78;17.60;;;3.80;99.90;;;;;;4994302;28;20042;-72
2023/03/03 02:54:16;;;;;;;78.30;19.23;;;3.80;99.90;;;;;;4993413;28;20487;-71
2023/03/03 02:56:42;;;;;;;73.22;18.58;;;3.80;99.90;;;;;;4976865;28;20507;-71
2023/03/03 02:59:08;;;;;;;90.90;18.50;;;3.90;99.90;;;;;;4993459;28;20057;-72
2023/03/03 03:01:37;;;;;;;70.70;18.45;;;3.80;99.90;;;;;;4993075;28;20406;-71
2023/03/03 03:04:10;;;;;;;97.47;19.95;;;3.90;99.90;;;;;;4992998;28;20047;-72
2023/03/03 03:06:36;;;;;;;83.50;19.23;;;3.80;99.90;;;;;;4992748;28;20129;-71
2023/03/03 03:09:04;;;;;;;63.33;17.35;;;3.80;99.90;;;;;;4976730;28;20034;-72
2023/03/03 03:11:30;;;;;;;90.85;18.08;;;3.80;99.90;;;;;;4976696;28;20042;-71
2023/03/03 03:13:56;;;;;;;65.78;17.17;;;3.80;99.90;;;;;;4992854;28;20041;-72
2023/03/03 03:16:21;;;;;;;99.13;17.63;;;3.80;99.90;;;;;;4976949;28;20035;-71
2023/03/03 03:18:49;;;;;;;103.43;17.95;;;3.80;99.90;;;;;;4993070;28;20042;-72
2023/03/03 03:21:15;;;;;;;70.05;18.02;;;3.70;99.90;;;;;;4976611;28;20049;-72
2023/03/03 03:23:40;;;;;;;64.82;17.02;;;3.70;99.90;;;;;;4976525;28;20054;-71
2023/03/03 03:26:06;;;;;;;81.25;17.38;;;3.80;99.90;;;;;;4976447;28;20418;-71
2023/03/03 03:28:32;;;;;;;88.60;20.10;;;3.80;99.90;;;;;;4976380;28;20065;-72
2023/03/03 03:30:58;;;;;;;77.32;18.15;;;3.80;99.90;;;;;;4976481;28;20043;-72
2023/03/03 03:33:24;;;;;;;74.63;18.75;;;3.80;99.90;;;;;;4976371;28;20038;-72
2023/03/03 03:35:50;;;;;;;90.93;19.80;;;3.80;99.90;;;;;;4992755;28;20038;-72
2023/03/03 03:38:15;;;;;;;90.65;19.50;;;3.80;99.90;;;;;;4976544;28;20441;-71
2023/03/03 03:40:42;;;;;;;74.22;20.30;;;3.80;99.90;;;;;;4992559;28;20491;-72
2023/03/03 03:43:08;;;;;;;72.72;19.23;;;3.80;99.90;;;;;;4992534;28;20053;-71
2023/03/03 03:45:34;;;;;;;84.95;19.23;;;3.90;99.90;;;;;;4976903;28;20077;-72
2023/03/03 03:47:59;;;;;;;69.05;17.80;;;3.80;99.90;;;;;;4976074;28;20042;-72
2023/03/03 03:50:25;;;;;;;82.30;17.45;;;3.80;99.90;;;;;;4976278;28;20042;-72
2023/03/03 03:52:50;;;;;;;122.05;17.27;;;3.80;99.90;;;;;;4992484;28;20038;-72
2023/03/03 03:55:16;;;;;;;77.50;14.25;;;3.80;99.90;;;;;;4976471;28;20060;-72
2023/03/03 03:57:42;;;;;;;62.30;13.63;;;3.80;99.90;;;;;;4992601;28;20522;-71
2023/03/03 04:00:10;;;;;;;55.50;13.07;;;3.80;99.90;;;;;;4992377;28;20049;-72
2023/03/03 04:02:36;;;;;;;104.32;13.07;;;3.80;99.90;;;;;;4992628;28;20074;-70
2023/03/03 04:05:02;;;;;;;76.18;11.25;;;3.80;99.90;;;;;;4992370;28;20077;-72
2023/03/03 04:07:28;;;;;;;97.40;12.05;;;3.80;99.90;;;;;;4976370;28;20038;-71
2023/03/03 04:09:53;;;;;;;91.18;11.18;;;3.70;99.90;;;;;;4992246;28;20049;-72
2023/03/03 04:12:19;;;;;;;112.13;11.98;;;3.70;99.90;;;;;;4992260;28;20042;-71
2023/03/03 04:14:45;;;;;;;87.13;11.43;;;3.60;99.90;;;;;;4976356;28;20162;-71
2023/03/03 04:17:23;;;;;;;118.65;12.18;;;3.70;99.90;;;;;;4977010;28;20509;-71
2023/03/03 04:19:51;;;;;;;116.40;12.73;;;3.60;99.90;;;;;;4979907;28;20074;-72
2023/03/03 04:22:16;;;;;;;78.10;11.55;;;3.60;99.90;;;;;;4980080;28;20042;-72
2023/03/03 04:24:42;;;;;;;98.07;11.88;;;3.60;99.90;;;;;;4979838;28;20181;-71
2023/03/03 04:27:08;;;;;;;115.32;11.95;;;3.60;99.90;;;;;;4979960;28;20042;-71
2023/03/03 04:29:34;;;;;;;152.60;13.63;;;3.60;99.90;;;;;;4995853;28;20086;-72
2023/03/03 04:32:00;;;;;;;71.20;10.88;;;3.60;99.90;;;;;;4979625;28;20042;-72
2023/03/03 04:34:25;;;;;;;68.03;10.73;;;3.60;99.90;;;;;;4995721;28;20034;-72
2023/03/03 04:36:51;;;;;;;65.82;11.27;;;3.60;99.90;;;;;;4979715;28;20038;-71
2023/03/03 04:39:17;;;;;;;129.95;11.98;;;3.60;99.90;;;;;;4995816;28;20503;-72
2023/03/03 04:41:42;;;;;;;64.13;9.95;;;3.60;99.90;;;;;;4995572;28;20049;-71
2023/03/03 04:44:08;;;;;;;69.65;10.75;;;3.60;99.90;;;;;;4979714;28;20046;-72
2023/03/03 04:46:33;;;;;;;55.30;8.65;;;3.60;99.90;;;;;;4995452;28;20093;-71
2023/03/03 04:48:59;;;;;;;110.93;11.40;;;3.60;99.90;;;;;;4995471;28;20053;-72
2023/03/03 04:51:25;;;;;;;77.97;10.13;;;3.60;99.90;;;;;;4979354;28;20038;-72
2023/03/03 04:53:50;;;;;;;100.35;10.55;;;3.50;99.90;;;;;;4995427;28;20126;-71
2023/03/03 04:56:16;;;;;;;78.65;10.93;;;3.50;99.90;;;;;;4995321;28;20061;-71
2023/03/03 04:58:41;;;;;;;110.05;11.05;;;3.50;99.90;;;;;;4995410;28;20038;-72
2023/03/03 05:01:12;;;;;;;104.32;11.40;;;3.50;99.90;;;;;;4995289;28;20128;-71
2023/03/03 05:03:37;;;;;;;75.30;10.57;;;3.50;99.90;;;;;;4979140;28;20039;-72
2023/03/03 05:06:03;;;;;;;146.02;12.15;;;3.50;99.90;;;;;;4995121;28;20041;-71
2023/03/03 05:08:29;;;;;;;66.07;10.45;;;3.50;99.90;;;;;;4979327;28;20181;-71
2023/03/03 05:10:55;;;;;;;144.35;13.40;;;3.50;99.90;;;;;;4995142;28;20388;-72
2023/03/03 05:13:21;;;;;;;87.78;10.82;;;3.40;99.90;;;;;;4995130;28;20077;-72
2023/03/03 05:15:51;;;;;;;97.13;11.93;;;3.50;99.90;;;;;;4995000;28;20038;-71
2023/03/03 05:18:18;;;;;;;142.80;12.43;;;3.50;99.90;;;;;;4978699;28;20176;-71
2023/03/03 05:20:43;;;;;;;152.27;12.88;;;3.50;99.90;;;;;;4995202;28;20569;-71
2023/03/03 05:23:09;;;;;;;103.35;11.38;;;3.50;99.90;;;;;;4978720;28;20078;-71
2023/03/03 05:25:35;;;;;;;104.20;10.82;;;3.40;99.90;;;;;;4994933;28;20125;-72
2023/03/03 05:28:00;;;;;;;132.18;11.93;;;3.50;99.90;;;;;;4994749;28;20041;-71
2023/03/03 05:30:26;;;;;;;95.45;11.07;;;3.50;99.90;;;;;;4978591;28;20523;-71
2023/03/03 05:32:51;;;;;;;130.57;11.27;;;3.40;99.90;;;;;;4978559;28;20034;-72
2023/03/03 05:35:18;;;;;;;125.00;11.23;;;3.50;99.90;;;;;;4994677;28;20046;-72
2023/03/03 05:37:46;;;;;;;145.48;11.30;;;3.50;99.90;;;;;;4994550;28;20128;-72
2023/03/03 05:40:13;;;;;;;113.47;9.93;;;3.40;99.90;;;;;;4994920;28;20046;-71
2023/03/03 05:42:39;;;;;;;176.13;11.18;;;3.40;99.90;;;;;;4978413;28;20133;-71
2023/03/03 05:45:05;;;;;;;97.40;9.68;;;3.40;99.90;;;;;;4978560;28;20074;-71
2023/03/03 05:47:31;;;;;;;136.02;10.70;;;3.40;99.90;;;;;;4994340;28;20031;-71
2023/03/03 05:49:56;;;;;;;209.43;11.93;;;3.50;99.90;;;;;;4994398;28;20076;-71
2023/03/03 05:52:23;;;;;;;169.43;12.27;;;3.40;99.90;;;;;;4994694;28;20050;-72
2023/03/03 05:54:49;;;;;;;170.02;12.13;;;3.50;99.90;;;;;;4994344;28;20411;-71
2023/03/03 05:57:15;;;;;;;165.52;10.25;;;3.40;99.90;;;;;;4978013;28;20096;-71
2023/03/03 05:59:40;;;;;;;168.77;9.60;;;3.40;99.90;;;;;;4994275;28;20045;-72
2023/03/03 06:02:06;;;;;;;268.17;12.75;;;3.40;99.90;;;;;;4978073;28;20046;-71
2023/03/03 06:04:32;;;;;;;183.00;10.45;;;3.40;99.90;;;;;;4994148;28;20152;-72
2023/03/03 06:06:58;;;;;;;143.88;9.50;;;3.40;99.90;;;;;;4978089;28;20177;-71
2023/03/03 06:09:25;;;;;;;196.45;11.13;;;3.30;99.90;;;;;;4993991;28;20038;-71
2023/03/03 06:11:52;;;;;;;171.40;9.90;;;3.40;99.90;;;;;;4994243;28;20530;-72
2023/03/03 06:14:21;;;;;;;182.23;10.38;;;3.30;99.90;;;;;;4994067;28;20048;-72
2023/03/03 06:16:47;;;;;;;183.48;9.35;;;3.30;99.90;;;;;;4993877;28;20038;-72
2023/03/03 06:19:13;;;;;;;238.73;10.90;;;3.30;99.90;;;;;;4977641;28;20043;-72
2023/03/03 06:21:40;;;;;;;229.25;11.18;;;3.30;99.90;;;;;;4993816;28;20050;-71
2023/03/03 06:24:05;;;;;;;234.93;11.02;;;3.30;99.90;;;;;;4977618;28;20050;-74
2023/03/03 06:26:31;;;;;;;209.00;11.07;;;3.30;99.90;;;;;;4977450;28;20129;-73
2023/03/03 06:28:57;;;;;;;138.02;9.25;;;3.20;99.90;;;;;;4977379;28;20043;-71
2023/03/03 06:31:22;;;;;;;195.88;10.52;;;3.30;99.90;;;;;;4993800;28;20046;-71
2023/03/03 06:33:48;;;;;;;171.35;9.82;;;3.20;99.90;;;;;;4977454;28;20491;-71
2023/03/03 06:36:14;;;;;;;174.75;9.77;;;3.20;99.90;;;;;;4993418;28;20041;-70
2023/03/03 06:38:39;;;;;;;152.20;9.20;;;3.20;99.90;;;;;;4977208;28;20038;-71
2023/03/03 06:41:07;;;;;;;110.90;7.68;;;3.20;99.90;;;;;;4993132;28;20053;-70
2023/03/03 06:43:34;;;;;;;153.57;8.93;;;3.20;99.90;;;;;;4993478;28;20150;-71
2023/03/03 06:45:59;;;;;;;142.45;8.57;;;3.20;99.90;;;;;;4993109;28;20044;-70
2023/03/03 06:48:25;;;;;;;163.05;9.23;;;3.20;99.90;;;;;;4993443;28;20038;-71
2023/03/03 06:50:51;;;;;;;141.93;8.77;;;3.10;99.90;;;;;;4993574;28;20030;-71
2023/03/03 06:53:17;;;;;;;207.98;10.32;;;3.20;99.90;;;;;;4993230;28;20514;-71
2023/03/03 06:55:44;;;;;;;194.57;9.88;;;3.20;99.90;;;;;;4976931;28;20038;-70
2023/03/03 06:58:16;;;;;;;172.57;9.10;;;3.20;99.90;;;;;;4977125;28;20414;-70
2023/03/03 07:00:44;;;;;;;173.10;10.20;;;3.20;99.90;;;;;;4993055;28;20050;-71
2023/03/03 07:03:20;;;;;;;183.38;8.95;;;3.10;99.90;;;;;;4993102;28;20415;-71
2023/03/03 07:05:46;;;;;;;163.82;9.07;;;3.10;99.90;;;;;;4976855;28;20073;-71
2023/03/03 07:08:17;;;;;;;105.82;6.97;;;3.10;99.90;;;;;;4976698;28;20136;-71
2023/03/03 07:10:44;;;;;;;111.50;7.78;;;3.20;99.90;;;;;;4993053;28;20122;-71
2023/03/03 07:13:24;;;;;;;146.18;7.47;;;3.20;99.90;;;;;;4976908;28;20077;-70
2023/03/03 07:15:52;;;;;;;122.22;6.95;;;3.30;99.90;;;;;;4976659;28;20533;-70
2023/03/03 07:18:50;;;;;;;125.80;7.80;;;3.20;99.90;;;;;;4993025;28;20400;-71
2023/03/03 07:21:35;;;;;;;195.90;8.95;;;3.30;99.90;;;;;;4993155;28;20172;-71
2023/03/03 07:24:25;;;;;;;153.45;7.90;;;3.30;99.90;;;;;;4976695;28;20042;-71
2023/03/03 07:26:51;;;;;;;142.07;7.45;;;3.30;99.90;;;;;;4992753;28;20042;-71
2023/03/03 07:29:27;;;;;;;137.90;7.35;;;3.30;99.90;;;;;;4992611;28;20046;-72
2023/03/03 07:31:58;;;;;;;131.13;7.43;;;3.40;99.90;;;;;;4992647;28;20084;-72
2023/03/03 07:34:30;;;;;;;103.10;7.22;;;3.30;99.90;;;;;;4976693;28;20038;-72
2023/03/03 07:37:03;;;;;;;40.92;4.47;;;3.40;99.90;;;;;;4992566;28;20499;-72
2023/03/03 07:39:42;;;;;;;148.93;7.50;;;3.40;99.90;;;;;;4976479;28;20133;-72
2023/03/03 07:42:08;;;;;;;115.30;6.38;;;3.50;99.90;;;;;;4992569;28;20069;-72
2023/03/03 07:44:36;;;;;;;111.55;6.80;;;3.50;99.90;;;;;;4992469;28;20042;-72
2023/03/03 07:47:19;;;;;;;99.55;6.10;;;3.50;99.90;;;;;;4976005;28;20073;-71
2023/03/03 07:49:47;;;;;;;123.80;6.60;;;3.50;99.90;;;;;;4976258;28;20133;-72
2023/03/03 07:52:40;;;;;;;100.50;6.70;;;3.50;99.90;;;;;;4977643;28;20039;-72
2023/03/03 07:55:30;;;;;;;83.78;5.65;;;3.60;99.90;;;;;;4980669;28;20042;-78
2023/03/03 07:58:04;;;;;;;59.10;5.85;;;3.60;99.90;;;;;;4996498;28;20511;-77
2023/03/03 08:00:29;;;;;;;109.00;6.63;;;3.60;99.90;;;;;;4996491;28;20138;-71
2023/03/03 08:03:16;;;;;;;70.47;5.65;;;3.60;99.90;;;;;;4980196;28;20050;-72
2023/03/03 08:05:50;;;;;;;53.03;4.80;;;3.50;99.90;;;;;;4980113;28;20096;-72
2023/03/03 08:08:30;;;;;;;70.85;5.15;;;3.60;99.90;;;;;;4996088;28;20046;-72
2023/03/03 08:11:00;;;;;;;93.75;6.28;;;3.70;99.90;;;;;;4980014;28;20042;-73
2023/03/03 08:13:37;;;;;;;79.80;5.53;;;3.60;99.90;;;;;;4980022;28;20488;-72
2023/03/03 08:16:09;;;;;;;57.65;5.68;;;3.70;99.90;;;;;;4996115;28;20176;-72
2023/03/03 08:18:35;;;;;;;56.47;4.93;;;3.70;99.90;;;;;;4979969;28;20042;-72
2023/03/03 08:21:12;;;;;;;44.22;5.28;;;3.80;99.90;;;;;;4979793;28;20038;-72
2023/03/03 08:23:37;;;;;;;67.95;5.72;;;3.80;99.90;;;;;;4996041;28;20050;-72
2023/03/03 08:26:03;;;;;;;77.85;5.90;;;3.90;99.90;;;;;;4979673;28;20410;-71
2023/03/03 08:28:29;;;;;;;82.30;5.57;;;3.90;99.90;;;;;;4995804;28;20169;-72
2023/03/03 08:30:54;;;;;;;65.53;4.72;;;4.00;99.90;;;;;;4979744;28;20121;-73
2023/03/03 08:33:20;;;;;;;155.80;8.68;;;3.90;99.90;;;;;;4995785;28;20046;-72
2023/03/03 08:35:47;;;;;;;54.65;5.07;;;3.80;99.90;;;;;;4979701;28;20038;-73
2023/03/03 08:38:15;;;;;;;215.45;10.07;;;3.90;99.90;;;;;;4995869;28;20053;-72
2023/03/03 08:40:41;;;;;;;52.50;4.90;;;3.90;99.90;;;;;;4979763;28;20092;-73
2023/03/03 08:43:07;;;;;;;134.52;7.57;;;3.90;99.90;;;;;;4995812;28;20038;-72
2023/03/03 08:45:34;;;;;;;189.07;9.07;;;4.00;99.90;;;;;;4996081;28;20046;-72
2023/03/03 08:48:00;;;;;;;166.05;9.05;;;4.00;99.90;;;;;;4979449;28;20418;-72
2023/03/03 08:50:38;;;;;;;18.20;3.72;;;4.10;99.90;;;;;;4995956;28;20395;-73
2023/03/03 08:53:04;;;;;;;16.92;3.58;;;4.10;99.90;;;;;;4979278;28;20517;-72
2023/03/03 08:55:30;;;;;;;29.38;4.90;;;4.00;99.90;;;;;;4979218;28;20197;-72
2023/03/03 08:57:56;;;;;;;26.27;4.22;;;4.00;99.90;;;;;;4979085;28;20041;-72
2023/03/03 09:00:22;;;;;;;44.83;4.78;;;4.00;99.90;;;;;;4979103;28;20126;-72
2023/03/03 09:02:49;;;;;;;6.72;3.67;;;4.00;99.90;;;;;;4978871;28;20125;-72
2023/03/03 09:05:16;;;;;;;17.90;4.70;;;4.00;99.90;;;;;;4995279;28;20073;-72
2023/03/03 09:07:42;;;;;;;20.95;3.70;;;4.00;99.90;;;;;;4995079;28;20392;-71
2023/03/03 09:10:09;;;;;;;8.95;4.15;;;4.00;99.90;;;;;;4995061;28;20112;-71
2023/03/03 09:12:38;;;;;;;4.43;3.38;;;3.90;99.90;;;;;;4995223;28;20045;-72
2023/03/03 09:15:28;;;;;;;10.40;4.30;;;3.90;99.90;;;;;;4995024;28;20119;-72
2023/03/03 09:17:58;;;;;;;11.52;4.35;;;4.00;99.90;;;;;;4995015;28;20042;-72
2023/03/03 09:20:39;;;;;;;9.75;4.22;;;3.90;99.90;;;;;;4994959;28;20384;-72
2023/03/03 09:23:23;;;;;;;5.13;3.05;;;4.00;99.90;;;;;;4978768;28;20565;-72
2023/03/03 09:25:49;;;;;;;5.07;3.58;;;4.00;99.90;;;;;;4994915;28;20042;-72
2023/03/03 09:28:34;;;;;;;6.70;4.18;;;4.00;99.90;;;;;;4994708;28;20046;-72
2023/03/03 09:31:01;;;;;;;11.52;4.78;;;3.90;99.90;;;;;;4994904;28;20582;-72
2023/03/03 09:33:45;;;;;;;6.05;3.88;;;4.00;99.90;;;;;;4978554;28;20045;-72
2023/03/03 09:36:28;;;;;;;7.95;4.10;;;4.10;99.90;;;;;;4994690;28;20405;-72
2023/03/03 09:38:55;;;;;;;7.40;3.47;;;4.10;99.90;;;;;;4978500;28;20073;-72
2023/03/03 09:41:40;;;;;;;8.10;3.50;;;4.10;99.90;;;;;;4994860;28;20046;-72
2023/03/03 09:44:15;;;;;;;7.40;3.40;;;4.20;99.90;;;;;;4994574;28;20050;-71
2023/03/03 09:47:06;;;;;;;8.10;4.22;;;4.30;99.90;;;;;;4994569;28;20116;-72
2023/03/03 09:49:34;;;;;;;10.90;4.32;;;4.30;99.90;;;;;;4994542;28;20039;-72
2023/03/03 09:52:19;;;;;;;8.13;4.20;;;4.40;99.90;;;;;;4994432;28;20132;-72
2023/03/03 09:54:50;;;;;;;6.25;4.30;;;4.40;99.90;;;;;;4994688;28;20101;-71
2023/03/03 09:57:22;;;;;;;5.72;4.07;;;4.40;99.90;;;;;;4994290;28;20042;-71
2023/03/03 10:00:27;;;;;;;7.07;4.50;;;4.50;99.90;;;;;;4994656;28;20140;-72
2023/03/03 10:03:29;;;;;;;7.68;3.55;;;4.50;99.90;;;;;;4994341;28;20046;-72
2023/03/03 10:06:07;;;;;;;8.43;3.30;;;4.60;99.90;;;;;;4993612;28;20053;-72
2023/03/03 10:09:06;;;;;;;6.45;3.58;;;4.70;99.90;;;;;;4978097;28;20043;-72
2023/03/03 10:11:53;;;;;;;5.32;3.97;;;4.80;99.90;;;;;;4994086;28;20045;-72
2023/03/03 10:14:39;;;;;;;6.35;4.07;;;4.90;99.90;;;;;;4993400;28;20070;-72
2023/03/03 10:17:51;;;;;;;6.68;3.70;;;4.80;99.90;;;;;;4993905;28;20042;-72
2023/03/03 10:20:29;;;;;;;6.18;3.83;;;4.90;99.90;;;;;;4958956;28;20108;-72
2023/03/03 10:23:02;;;;;;;5.35;3.53;;;5.00;99.90;;;;;;4994041;28;20038;-72
2023/03/03 10:25:31;;;;;;;10.38;4.22;;;5.00;99.90;;;;;;4993857;28;20042;-72
2023/03/03 10:28:02;;;;;;;6.53;3.97;;;5.10;99.90;;;;;;4977350;28;20069;-72
2023/03/03 10:30:52;;;;;;;6.47;3.72;;;5.10;99.90;;;;;;4993656;28;20487;-72
2023/03/03 10:33:50;;;;;;;6.43;3.33;;;5.30;99.90;;;;;;4993705;28;20491;-71
2023/03/03 10:36:53;;;;;;;6.47;3.60;;;5.30;99.90;;;;;;4977291;28;20046;-72
2023/03/03 10:39:27;;;;;;;6.63;3.40;;;5.40;99.90;;;;;;4993718;28;20047;-72
2023/03/03 10:42:21;;;;;;;5.47;3.90;;;5.50;99.90;;;;;;4977238;28;20138;-71
2023/03/03 10:45:09;;;;;;;6.85;3.88;;;5.60;99.90;;;;;;4977512;28;20096;-72
2023/03/03 10:48:02;;;;;;;6.05;3.42;;;5.60;99.90;;;;;;4993183;28;20050;-71
2023/03/03 10:51:07;;;;;;;11.82;3.92;;;5.70;99.90;;;;;;4993561;28;20049;-72
2023/03/03 10:54:07;;;;;;;7.68;3.65;;;5.70;99.90;;;;;;4977012;28;20034;-72
2023/03/03 10:57:03;;;;;;;6.53;3.58;;;5.80;99.90;;;;;;4977030;28;20070;-71
2023/03/03 11:00:04;;;;;;;7.07;3.70;;;5.90;99.90;;;;;;4993272;28;20499;-72
2023/03/03 11:02:56;;;;;;;6.22;3.90;;;6.00;99.90;;;;;;4976997;28;20080;-71
2023/03/03 11:05:40;;;;;;;6.13;3.83;;;6.20;99.90;;;;;;4993092;28;20046;-73
2023/03/03 11:08:31;;;;;;;5.72;2.90;;;6.30;99.90;;;;;;4976778;28;20046;-72
2023/03/03 11:11:18;;;;;;;7.03;3.28;;;6.40;99.90;;;;;;4993032;28;20042;-72
2023/03/03 11:14:04;;;;;;;6.03;2.88;;;6.60;99.90;;;;;;4993022;28;20093;-73
2023/03/03 11:16:57;;;;;;;9.45;3.10;;;7.20;99.90;;;;;;4992878;28;20058;-72
2023/03/03 11:19:29;;;;;;;7.28;3.00;;;8.30;99.90;;;;;;4993222;28;20443;-72
2023/03/03 11:22:13;;;;;;;4.10;2.42;;;9.60;99.90;;;;;;4992822;28;20049;-73
2023/03/03 11:25:03;;;;;;;4.03;2.00;;;10.40;99.90;;;;;;4992765;28;20406;-72
2023/03/03 11:28:02;;;;;;;6.50;1.80;;;11.20;99.90;;;;;;4976622;28;20406;-72
2023/03/03 11:31:00;;;;;;;5.35;1.60;;;12.20;99.90;;;;;;4993030;28;20422;-72
2023/03/03 11:33:37;;;;;;;4.18;1.40;;;12.90;99.90;;;;;;4992697;28;20050;-72
2023/03/03 11:36:09;;;;;;;5.55;2.03;;;13.50;99.90;;;;;;4992641;28;20038;-72
2023/03/03 11:38:50;;;;;;;4.85;1.95;;;13.90;99.70;;;;;;4992576;28;20034;-72
2023/03/03 11:41:37;;;;;;;3.03;1.25;;;13.40;98.60;;;;;;4976703;28;20035;-72
2023/03/03 11:44:46;;;;;;;3.42;1.50;;;12.70;97.10;;;;;;4992589;28;20050;-73
2023/03/03 11:47:32;;;;;;;4.63;1.70;;;12.00;97.10;;;;;;4917752;29;20055;-72
2023/03/03 11:50:25;;;;;;;2.28;1.40;;;11.60;99.90;;;;;;4902385;29;20047;-72
2023/03/03 11:53:14;;;;;;;6.05;1.52;;;11.20;99.90;;;;;;4902322;29;20099;-72
2023/03/03 11:55:44;;;;;;;3.10;1.73;;;10.90;99.70;;;;;;4918174;29;20433;-72
2023/03/03 11:58:38;;;;;;;4.82;1.77;;;10.70;99.90;;;;;;4917840;29;20044;-72
2023/03/03 12:01:19;;;;;;;3.40;1.08;;;10.40;99.90;;;;;;4912254;29;20047;-73
2023/03/03 12:03:52;;;;;;;3.47;0.70;;;10.20;99.00;;;;;;4917785;29;20047;-73
2023/03/03 12:06:23;;;;;;;2.63;0.55;;;10.00;98.30;;;;;;4917840;29;20050;-72
2023/03/03 12:09:14;;;;;;;3.80;0.95;;;9.80;97.60;;;;;;4902235;29;20055;-73
2023/03/03 12:11:43;;;;;;;2.53;0.55;;;9.80;96.90;;;;;;4917812;29;20054;-73
2023/03/03 12:14:26;;;;;;;3.03;0.82;;;9.70;97.80;;;;;;4902023;29;20155;-73
2023/03/03 12:17:00;;;;;;;3.05;0.93;;;9.70;96.20;;;;;;4901889;29;20540;-72
2023/03/03 12:19:28;;;;;;;3.33;0.95;;;9.60;97.10;;;;;;4917815;29;20083;-73
2023/03/03 12:22:10;;;;;;;5.63;1.20;;;9.40;97.20;;;;;;4964959;28;20093;-72
2023/03/03 12:25:03;;;;;;;2.07;1.00;;;9.30;97.20;;;;;;4975974;28;20076;-73
2023/03/03 12:27:37;;;;;;;3.05;1.15;;;9.20;97.00;;;;;;4976037;28;20491;-72
2023/03/03 12:30:09;;;;;;;4.00;1.40;;;9.10;98.00;;;;;;4975884;28;20046;-73
2023/03/03 12:33:02;;;;;;;5.07;1.00;;;9.00;98.00;;;;;;4992137;28;20093;-72
2023/03/03 12:35:47;;;;;;;2.57;0.83;;;8.90;97.60;;;;;;4992121;28;20050;-73
2023/03/03 12:38:47;;;;;;;2.90;0.80;;;8.80;98.10;;;;;;4976826;28;20046;-72
2023/03/03 12:41:20;;;;;;;4.80;1.13;;;8.90;97.80;;;;;;4995715;28;20046;-72
2023/03/03 12:43:59;;;;;;;4.28;0.90;;;8.90;97.60;;;;;;4979523;28;20038;-73
2023/03/03 12:46:52;;;;;;;4.75;1.10;;;8.90;97.40;;;;;;4995815;28;20487;-72
2023/03/03 12:49:18;;;;;;;4.22;0.85;;;9.30;97.10;;;;;;4944422;28;20141;-73
2023/03/03 12:51:52;;;;;;;4.60;0.90;;;9.40;97.00;;;;;;4979275;28;20038;-73
2023/03/03 12:54:48;;;;;;;5.72;0.90;;;9.50;96.50;;;;;;4995538;28;20043;-72
2023/03/03 12:57:43;;;;;;;6.25;1.08;;;9.50;95.70;;;;;;4979112;28;20081;-72
2023/03/03 13:00:41;;;;;;;2.05;0.88;;;9.40;94.50;;;;;;4993030;28;20053;-72
2023/03/03 13:03:22;;;;;;;2.65;0.82;;;9.40;95.40;;;;;;4979104;28;20047;-72
2023/03/03 13:05:59;;;;;;;4.50;1.23;;;9.70;94.50;;;;;;4979302;28;20095;-73
2023/03/03 13:08:50;;;;;;;5.32;1.55;;;9.80;94.70;;;;;;4995236;28;20046;-72
2023/03/03 13:11:32;;;;;;;4.68;0.90;;;9.70;93.50;;;;;;4995476;28;20035;-72